Terminal Aerodrome Forecast
Issued by NWS Topeka, KS

Home | Current Version | Previous Version | Text Only | Print | Product List | Glossary Off
Versions: 1 2 3 4 5 6 7 8 9 10 11 12 13 14 15 16 17 18 19

938
FTUS43 KTOP 230858 AAA
TAFTOP
TAF AMD
KTOP 230858Z 2309/2406 30005KT P6SM VCSH BKN040
     FM231000 32007KT P6SM VCSH BKN050
     FM231500 33012KT P6SM BKN100=

USA.gov is the U.S. government's official web portal to all federal, state and local government web resources and services.